Time;durP1;ratioP1;P1;durP2;ratioP2;P2;SDS_P1;SDS_P2;PMS_P1;PMS_P2;Temp;Humidity;BMP_temperature;BMP_pressure;BME280_temperature;BME280_humidity;BME280_pressure;Samples;Min_cycle;Max_cycle;Signal;HPM_P1;HPM_P2
2024/03/20 00:02:05;;;;;;;12.87;7.30;;;7.60;99.90;;;;;;5042649;28;20471;-68
2024/03/20 00:04:32;;;;;;;15.90;7.60;;;7.50;99.90;;;;;;5060978;28;20451;-68
2024/03/20 00:06:59;;;;;;;12.63;6.50;;;7.40;99.90;;;;;;5043181;28;20816;-69
2024/03/20 00:09:27;;;;;;;12.50;7.07;;;7.40;99.90;;;;;;5044602;28;20447;-68
2024/03/20 00:11:56;;;;;;;12.30;7.30;;;7.50;99.90;;;;;;5043181;28;20468;-67
2024/03/20 00:14:23;;;;;;;10.93;6.10;;;7.40;99.90;;;;;;5035896;28;20469;-68
2024/03/20 00:16:51;;;;;;;13.50;7.10;;;7.30;99.90;;;;;;5036748;28;20468;-67
2024/03/20 00:19:18;;;;;;;13.60;7.43;;;7.30;99.90;;;;;;5044264;28;21088;-68
2024/03/20 00:21:45;;;;;;;12.33;6.60;;;7.30;99.90;;;;;;5041627;28;20905;-69
2024/03/20 00:24:13;;;;;;;17.67;7.00;;;7.10;99.90;;;;;;5043901;28;20459;-68
2024/03/20 00:26:41;;;;;;;16.80;7.80;;;7.00;99.90;;;;;;5038566;28;20449;-67
2024/03/20 00:29:08;;;;;;;12.10;7.20;;;7.00;99.90;;;;;;5042131;28;20469;-68
2024/03/20 00:31:35;;;;;;;12.77;7.10;;;7.20;99.90;;;;;;5042895;28;20466;-68
2024/03/20 00:34:02;;;;;;;11.70;7.30;;;7.10;99.90;;;;;;5042395;28;20445;-67
2024/03/20 00:36:31;;;;;;;16.00;6.60;;;7.20;99.90;;;;;;5039394;28;20453;-68
2024/03/20 00:38:58;;;;;;;11.47;6.37;;;7.20;99.90;;;;;;5037943;28;20553;-69
2024/03/20 00:41:25;;;;;;;13.17;7.50;;;7.20;99.90;;;;;;5041296;28;20469;-68
2024/03/20 00:43:53;;;;;;;13.50;7.10;;;7.10;99.90;;;;;;5040375;28;20486;-69
2024/03/20 00:46:20;;;;;;;12.30;6.70;;;7.10;99.90;;;;;;5039127;28;20445;-68
2024/03/20 00:48:47;;;;;;;12.33;7.70;;;7.00;99.90;;;;;;5036302;28;20514;-68
2024/03/20 00:51:14;;;;;;;13.33;8.50;;;7.10;99.90;;;;;;5039698;28;20450;-70
2024/03/20 00:53:41;;;;;;;13.33;7.60;;;7.10;99.90;;;;;;5038346;28;20460;-70
2024/03/20 00:56:08;;;;;;;12.13;6.47;;;7.10;99.90;;;;;;5041018;28;20475;-68
2024/03/20 00:58:35;;;;;;;11.87;6.77;;;7.00;99.90;;;;;;5039047;28;20444;-67
2024/03/20 01:01:04;;;;;;;14.73;7.13;;;6.90;99.90;;;;;;5043333;28;20852;-68
2024/03/20 01:03:32;;;;;;;13.00;7.20;;;6.90;99.90;;;;;;5044777;28;20448;-68
2024/03/20 01:05:59;;;;;;;13.17;7.23;;;6.80;99.90;;;;;;5045282;28;20456;-68
2024/03/20 01:08:26;;;;;;;13.00;7.17;;;6.80;99.90;;;;;;5045915;28;20523;-68
2024/03/20 01:10:53;;;;;;;13.90;7.57;;;6.70;99.90;;;;;;5045571;28;20486;-67
2024/03/20 01:13:22;;;;;;;12.10;7.10;;;6.50;99.90;;;;;;5044755;28;20468;-68
2024/03/20 01:15:49;;;;;;;11.60;6.63;;;6.60;99.90;;;;;;5046046;28;20453;-67
2024/03/20 01:18:17;;;;;;;13.40;7.63;;;6.60;99.90;;;;;;5046103;28;20455;-69
2024/03/20 01:20:45;;;;;;;11.63;6.93;;;6.50;99.90;;;;;;5045495;28;21033;-69
2024/03/20 01:23:13;;;;;;;15.07;8.10;;;6.60;99.90;;;;;;5044574;28;20476;-68
2024/03/20 01:25:40;;;;;;;14.23;7.60;;;6.70;99.90;;;;;;5045868;28;20482;-67
2024/03/20 01:28:07;;;;;;;14.93;7.90;;;6.60;99.90;;;;;;5046031;28;20544;-68
2024/03/20 01:30:34;;;;;;;12.40;7.70;;;6.60;99.90;;;;;;5045725;28;20448;-69
2024/03/20 01:33:01;;;;;;;13.37;7.30;;;6.50;99.90;;;;;;5044239;28;20487;-69
2024/03/20 01:35:29;;;;;;;15.63;7.97;;;6.50;99.90;;;;;;5045633;28;20449;-68
2024/03/20 01:37:56;;;;;;;11.60;7.10;;;6.30;99.90;;;;;;5045728;28;20454;-70
2024/03/20 01:40:23;;;;;;;15.93;9.20;;;6.20;99.90;;;;;;5045064;28;20452;-69
2024/03/20 01:42:54;;;;;;;15.33;7.20;;;6.20;99.90;;;;;;5044054;28;20472;-68
2024/03/20 01:45:21;;;;;;;13.27;7.47;;;6.20;99.90;;;;;;5046471;28;20440;-69
2024/03/20 01:47:49;;;;;;;13.47;7.37;;;6.30;99.90;;;;;;5046744;28;20941;-69
2024/03/20 01:50:16;;;;;;;13.33;7.40;;;6.40;99.90;;;;;;5046392;28;20950;-68
2024/03/20 01:52:51;;;;;;;15.00;8.50;;;6.40;99.90;;;;;;5045566;28;20473;-68
2024/03/20 01:55:21;;;;;;;11.77;6.87;;;6.40;99.90;;;;;;5043625;28;20464;-67
2024/03/20 01:57:48;;;;;;;15.10;8.30;;;6.30;99.90;;;;;;5042457;28;20452;-69
2024/03/20 02:00:21;;;;;;;13.53;7.83;;;6.30;99.90;;;;;;5046608;28;20479;-69
2024/03/20 02:02:50;;;;;;;14.20;7.53;;;6.30;99.90;;;;;;5045442;28;20483;-68
2024/03/20 02:05:17;;;;;;;18.73;9.37;;;6.30;99.90;;;;;;5043935;28;20452;-68
2024/03/20 02:07:45;;;;;;;15.47;8.43;;;6.20;99.90;;;;;;5041202;28;20455;-68
2024/03/20 02:10:13;;;;;;;15.43;8.90;;;6.20;99.90;;;;;;5045615;28;20452;-67
2024/03/20 02:12:40;;;;;;;12.20;7.00;;;6.30;99.90;;;;;;5044042;28;20472;-69
2024/03/20 02:15:08;;;;;;;15.97;8.00;;;6.20;99.90;;;;;;5044492;28;20456;-69
2024/03/20 02:17:36;;;;;;;16.07;9.03;;;6.20;99.90;;;;;;5039079;28;20935;-68
2024/03/20 02:20:04;;;;;;;14.73;8.23;;;6.10;99.90;;;;;;5045384;28;20483;-68
2024/03/20 02:22:36;;;;;;;13.40;7.90;;;6.20;99.90;;;;;;5043745;28;20475;-69
2024/03/20 02:25:04;;;;;;;13.27;7.90;;;6.10;99.90;;;;;;5044738;28;21041;-70
2024/03/20 02:27:31;;;;;;;16.30;8.73;;;6.10;99.90;;;;;;5037302;28;20454;-68
2024/03/20 02:29:58;;;;;;;14.50;8.20;;;6.10;99.90;;;;;;5045150;28;20475;-68
2024/03/20 02:32:25;;;;;;;11.90;7.57;;;6.00;99.90;;;;;;5043885;28;20894;-69
2024/03/20 02:34:53;;;;;;;15.50;8.03;;;6.10;99.90;;;;;;5043726;28;20510;-68
2024/03/20 02:37:20;;;;;;;14.70;6.67;;;6.00;99.90;;;;;;5045721;28;20456;-67
2024/03/20 02:39:48;;;;;;;15.00;8.83;;;6.00;99.90;;;;;;5045807;28;20459;-68
2024/03/20 02:42:15;;;;;;;13.00;7.77;;;6.10;99.90;;;;;;5044620;28;21116;-68
2024/03/20 02:44:42;;;;;;;15.13;7.90;;;6.00;99.90;;;;;;5045846;28;20871;-67
2024/03/20 02:47:10;;;;;;;15.50;7.60;;;6.00;99.90;;;;;;5039305;28;20962;-68
2024/03/20 02:49:37;;;;;;;12.73;8.10;;;5.90;99.90;;;;;;5044109;28;20471;-70
2024/03/20 02:52:04;;;;;;;14.13;8.13;;;6.00;99.90;;;;;;5043446;28;20471;-70
2024/03/20 02:54:31;;;;;;;14.23;7.90;;;6.00;99.90;;;;;;5044983;28;20452;-67
2024/03/20 02:56:59;;;;;;;15.77;7.57;;;6.20;99.90;;;;;;5044465;28;20452;-69
2024/03/20 02:59:26;;;;;;;12.13;7.03;;;6.20;99.90;;;;;;5050010;28;20448;-67
2024/03/20 03:01:53;;;;;;;13.77;7.77;;;6.10;99.90;;;;;;5039359;28;20495;-68
2024/03/20 03:04:20;;;;;;;12.97;7.43;;;6.00;99.90;;;;;;5044464;28;20464;-68
2024/03/20 03:06:48;;;;;;;12.40;7.80;;;5.90;99.90;;;;;;5044456;28;20824;-68
2024/03/20 03:09:17;;;;;;;14.07;8.27;;;5.90;99.90;;;;;;5044756;28;20453;-68
2024/03/20 03:11:44;;;;;;;14.10;8.70;;;5.90;99.90;;;;;;5043281;28;20789;-68
2024/03/20 03:14:13;;;;;;;15.90;8.40;;;6.10;99.90;;;;;;5035347;28;20465;-67
2024/03/20 03:16:40;;;;;;;14.33;8.00;;;6.20;99.90;;;;;;5044448;28;20451;-69
2024/03/20 03:19:09;;;;;;;13.47;8.20;;;6.20;99.90;;;;;;5043697;28;20456;-68
2024/03/20 03:21:36;;;;;;;12.40;7.67;;;6.00;99.90;;;;;;5044811;28;20499;-68
2024/03/20 03:24:04;;;;;;;17.47;8.70;;;5.90;99.90;;;;;;5045182;28;20826;-67
2024/03/20 03:26:30;;;;;;;15.67;8.43;;;6.10;99.90;;;;;;5045219;28;20444;-68
2024/03/20 03:28:57;;;;;;;14.40;8.50;;;6.20;99.90;;;;;;5045625;28;20448;-68
2024/03/20 03:31:26;;;;;;;14.23;9.33;;;6.20;99.90;;;;;;5045321;28;20486;-69
2024/03/20 03:33:53;;;;;;;16.30;9.03;;;6.10;99.90;;;;;;5044666;28;20452;-71
2024/03/20 03:36:20;;;;;;;13.80;8.70;;;6.00;99.90;;;;;;5045085;28;20452;-67
2024/03/20 03:38:47;;;;;;;17.20;9.30;;;6.00;99.90;;;;;;5045718;28;20509;-69
2024/03/20 03:41:14;;;;;;;14.03;9.53;;;6.00;99.90;;;;;;5044813;28;20484;-68
2024/03/20 03:43:41;;;;;;;13.63;8.50;;;5.90;99.90;;;;;;5044517;28;20458;-68
2024/03/20 03:46:08;;;;;;;17.80;9.30;;;5.90;99.90;;;;;;5044861;28;20460;-67
2024/03/20 03:48:38;;;;;;;18.40;10.63;;;5.90;99.90;;;;;;5045475;28;20448;-67
2024/03/20 03:51:05;;;;;;;13.50;8.80;;;5.90;99.90;;;;;;5044942;28;20459;-69
2024/03/20 03:53:33;;;;;;;15.20;9.30;;;6.00;99.90;;;;;;5047096;28;20450;-67
2024/03/20 03:56:00;;;;;;;15.00;8.17;;;5.90;99.90;;;;;;5048143;28;20454;-68
2024/03/20 03:58:27;;;;;;;16.10;8.37;;;5.80;99.90;;;;;;5048379;28;20839;-69
2024/03/20 04:00:54;;;;;;;14.20;8.00;;;5.80;99.90;;;;;;5048389;28;20487;-69
2024/03/20 04:03:27;;;;;;;12.60;7.33;;;5.70;99.90;;;;;;5047774;28;20467;-69
2024/03/20 04:05:58;;;;;;;12.20;7.03;;;5.60;99.90;;;;;;5048266;28;20463;-70
2024/03/20 04:08:25;;;;;;;14.50;7.70;;;5.80;99.90;;;;;;5047340;28;20455;-69
2024/03/20 04:10:52;;;;;;;14.37;7.40;;;5.70;99.90;;;;;;5047160;28;20462;-68
2024/03/20 04:13:19;;;;;;;15.40;8.47;;;5.80;99.90;;;;;;5046377;28;20474;-70
2024/03/20 04:15:47;;;;;;;11.97;6.40;;;5.90;99.90;;;;;;5047013;28;20457;-68
2024/03/20 04:18:16;;;;;;;14.43;7.80;;;6.10;99.90;;;;;;5047458;28;20454;-68
2024/03/20 04:20:44;;;;;;;14.40;7.57;;;6.00;99.90;;;;;;5047400;28;20495;-69
2024/03/20 04:23:13;;;;;;;12.07;6.63;;;5.90;99.90;;;;;;5045855;28;20475;-68
2024/03/20 04:25:40;;;;;;;13.40;6.83;;;5.70;99.90;;;;;;5046870;28;20547;-69
2024/03/20 04:28:07;;;;;;;13.27;7.37;;;5.50;99.90;;;;;;5044155;28;20465;-67
2024/03/20 04:30:34;;;;;;;13.13;7.10;;;5.40;99.90;;;;;;5047271;28;20466;-68
2024/03/20 04:33:01;;;;;;;13.80;7.03;;;5.50;99.90;;;;;;5045712;28;20931;-68
2024/03/20 04:35:29;;;;;;;12.73;7.20;;;5.60;99.90;;;;;;5046318;28;20462;-68
2024/03/20 04:37:56;;;;;;;11.97;6.20;;;5.60;99.90;;;;;;5047741;28;20465;-67
2024/03/20 04:40:25;;;;;;;14.03;6.47;;;5.60;99.90;;;;;;5046537;28;21235;-67
2024/03/20 04:42:52;;;;;;;15.30;7.63;;;5.50;99.90;;;;;;5046449;28;20463;-67
2024/03/20 04:45:20;;;;;;;13.03;7.17;;;5.40;99.90;;;;;;5047739;28;20455;-70
2024/03/20 04:47:47;;;;;;;15.30;7.50;;;5.50;99.90;;;;;;5047458;28;20448;-67
2024/03/20 04:50:14;;;;;;;14.70;7.77;;;5.40;99.90;;;;;;5048027;28;20481;-70
2024/03/20 04:52:41;;;;;;;12.70;7.00;;;5.50;99.90;;;;;;5046417;28;20472;-68
2024/03/20 04:55:08;;;;;;;14.33;7.20;;;5.40;99.90;;;;;;5047482;28;20459;-68
2024/03/20 04:57:36;;;;;;;12.93;7.30;;;5.30;99.90;;;;;;5047370;28;20444;-68
2024/03/20 05:00:11;;;;;;;13.33;7.33;;;5.40;99.90;;;;;;5047778;28;20459;-68
2024/03/20 05:02:39;;;;;;;12.60;7.30;;;5.20;99.90;;;;;;5045021;28;20553;-68
2024/03/20 05:05:06;;;;;;;12.20;7.50;;;5.20;99.90;;;;;;5045486;28;20444;-68
2024/03/20 05:07:33;;;;;;;13.77;7.40;;;5.10;99.90;;;;;;5045687;28;20456;-71
2024/03/20 05:10:00;;;;;;;14.77;7.67;;;5.00;99.90;;;;;;5046303;28;20443;-68
2024/03/20 05:12:26;;;;;;;15.60;7.40;;;5.10;99.90;;;;;;5044849;28;20464;-69
2024/03/20 05:14:54;;;;;;;15.03;7.90;;;5.20;99.90;;;;;;5045965;28;20877;-69
2024/03/20 05:17:21;;;;;;;13.20;7.23;;;5.30;99.90;;;;;;5045419;28;20455;-68
2024/03/20 05:19:47;;;;;;;16.50;7.43;;;5.30;99.90;;;;;;5046821;28;20456;-67
2024/03/20 05:22:14;;;;;;;17.00;7.63;;;5.30;99.90;;;;;;5045113;28;20588;-68
2024/03/20 05:24:40;;;;;;;12.43;7.77;;;5.30;99.90;;;;;;5046465;28;20458;-68
2024/03/20 05:27:07;;;;;;;13.53;7.00;;;5.30;99.90;;;;;;5046162;28;20457;-68
2024/03/20 05:29:34;;;;;;;12.97;6.63;;;5.20;99.90;;;;;;5045415;28;20954;-70
2024/03/20 05:32:02;;;;;;;12.83;6.70;;;5.10;99.90;;;;;;5046296;28;20547;-66
2024/03/20 05:34:28;;;;;;;13.47;7.33;;;5.00;99.90;;;;;;5047446;28;20456;-69
2024/03/20 05:36:55;;;;;;;13.73;7.60;;;5.00;99.90;;;;;;5046865;28;20448;-69
2024/03/20 05:39:21;;;;;;;13.03;7.30;;;5.00;99.90;;;;;;5047295;28;20458;-70
2024/03/20 05:41:48;;;;;;;15.27;7.80;;;5.10;99.90;;;;;;5043845;28;20851;-72
2024/03/20 05:44:17;;;;;;;16.57;7.37;;;5.20;99.90;;;;;;5044662;28;20499;-69
2024/03/20 05:46:49;;;;;;;13.57;6.90;;;5.20;99.90;;;;;;5046790;28;20470;-69
2024/03/20 05:49:17;;;;;;;13.27;7.57;;;5.40;99.90;;;;;;5047257;28;20463;-67
2024/03/20 05:51:44;;;;;;;14.73;7.57;;;5.40;99.90;;;;;;5046084;28;20491;-68
2024/03/20 05:54:10;;;;;;;13.40;7.83;;;5.30;99.90;;;;;;5045830;28;20462;-70
2024/03/20 05:56:37;;;;;;;15.00;8.03;;;5.30;99.90;;;;;;5047298;28;20691;-69
2024/03/20 05:59:03;;;;;;;15.67;9.30;;;5.30;99.90;;;;;;5048091;28;20482;-70
2024/03/20 06:01:31;;;;;;;16.47;9.03;;;5.30;99.90;;;;;;5046884;28;20931;-68
2024/03/20 06:03:57;;;;;;;15.47;8.60;;;5.20;99.90;;;;;;5046241;28;20510;-67
2024/03/20 06:06:27;;;;;;;15.50;9.23;;;5.30;99.90;;;;;;5046777;28;21129;-67
2024/03/20 06:08:53;;;;;;;17.00;10.37;;;5.30;99.90;;;;;;5046990;28;20467;-68
2024/03/20 06:11:38;;;;;;;15.37;9.70;;;5.40;99.90;;;;;;5047340;28;20442;-70
2024/03/20 06:14:04;;;;;;;16.40;9.93;;;5.40;99.90;;;;;;5046518;28;20460;-69
2024/03/20 06:16:32;;;;;;;16.23;9.83;;;5.50;99.90;;;;;;5038050;28;20448;-70
2024/03/20 06:18:58;;;;;;;17.60;10.60;;;5.60;99.90;;;;;;5046427;28;20466;-71
2024/03/20 06:21:26;;;;;;;18.37;11.10;;;5.50;99.90;;;;;;5042295;28;20483;-70
2024/03/20 06:23:52;;;;;;;20.30;10.73;;;5.60;99.90;;;;;;5045525;28;20447;-69
2024/03/20 06:26:19;;;;;;;17.37;11.63;;;5.60;99.90;;;;;;5046146;28;20450;-69
2024/03/20 06:28:45;;;;;;;19.37;11.43;;;5.70;99.90;;;;;;5046453;28;20503;-70
2024/03/20 06:31:12;;;;;;;18.80;11.43;;;6.00;99.90;;;;;;5045222;28;20458;-70
2024/03/20 06:33:39;;;;;;;18.57;11.17;;;6.00;99.90;;;;;;5044408;28;20462;-69
2024/03/20 06:36:06;;;;;;;19.80;10.73;;;6.10;99.90;;;;;;5045257;28;20448;-70
2024/03/20 06:38:34;;;;;;;14.77;9.70;;;6.30;99.90;;;;;;5037563;28;20468;-70
2024/03/20 06:41:03;;;;;;;15.10;9.50;;;6.40;99.90;;;;;;5045518;28;20444;-70
2024/03/20 06:43:34;;;;;;;17.43;8.97;;;6.50;99.90;;;;;;5044497;28;20444;-70
2024/03/20 06:46:01;;;;;;;15.00;9.67;;;6.60;99.90;;;;;;5045123;28;20452;-69
2024/03/20 06:48:28;;;;;;;16.07;8.93;;;6.70;99.90;;;;;;5044713;28;20498;-69
2024/03/20 06:50:58;;;;;;;16.03;8.23;;;6.70;99.90;;;;;;5045219;28;20465;-68
2024/03/20 06:53:25;;;;;;;16.60;9.63;;;6.80;99.90;;;;;;5043842;28;20816;-69
2024/03/20 06:55:54;;;;;;;12.30;8.20;;;6.90;99.90;;;;;;5045019;28;20516;-69
2024/03/20 06:58:20;;;;;;;15.63;9.60;;;7.00;99.90;;;;;;5044262;28;20452;-70
2024/03/20 07:00:47;;;;;;;14.87;9.10;;;7.10;99.90;;;;;;5044942;28;20946;-67
2024/03/20 07:03:14;;;;;;;17.63;10.50;;;7.10;99.90;;;;;;5044420;28;20689;-67
2024/03/20 07:05:42;;;;;;;15.83;10.17;;;7.20;99.90;;;;;;5045690;28;20445;-67
2024/03/20 07:08:09;;;;;;;15.97;9.07;;;7.30;99.90;;;;;;5045214;28;20457;-68
2024/03/20 07:10:37;;;;;;;14.63;9.00;;;7.40;99.90;;;;;;5045581;28;20476;-67
2024/03/20 07:13:05;;;;;;;15.53;9.20;;;7.40;99.90;;;;;;5044359;28;20474;-69
2024/03/20 07:15:33;;;;;;;15.60;8.60;;;7.50;99.90;;;;;;5045440;28;20455;-69
2024/03/20 07:17:59;;;;;;;16.17;8.70;;;7.60;99.90;;;;;;5037231;28;20827;-67
2024/03/20 07:20:26;;;;;;;13.20;8.70;;;7.60;99.90;;;;;;5046275;28;20451;-69
2024/03/20 07:22:52;;;;;;;15.90;8.37;;;7.70;99.90;;;;;;5044589;28;20491;-68
2024/03/20 07:25:21;;;;;;;13.50;8.10;;;7.80;99.90;;;;;;5046517;28;20450;-70
2024/03/20 07:27:47;;;;;;;16.30;8.70;;;7.80;99.90;;;;;;5039617;28;20945;-68
2024/03/20 07:30:16;;;;;;;14.77;8.20;;;7.90;99.90;;;;;;5049909;28;20465;-68
2024/03/20 07:32:42;;;;;;;12.20;7.80;;;8.10;99.90;;;;;;5044761;28;20462;-68
2024/03/20 07:35:10;;;;;;;14.90;8.67;;;8.20;99.90;;;;;;5049841;28;20459;-70
2024/03/20 07:37:36;;;;;;;16.70;9.30;;;8.30;99.90;;;;;;5050041;28;21130;-67
2024/03/20 07:40:04;;;;;;;14.90;7.90;;;8.50;99.90;;;;;;5049985;28;20455;-69
2024/03/20 07:42:30;;;;;;;14.20;8.70;;;8.60;99.90;;;;;;5047778;28;20486;-69
2024/03/20 07:44:57;;;;;;;14.50;8.40;;;8.90;99.90;;;;;;5049005;28;20952;-68
2024/03/20 07:47:25;;;;;;;13.17;7.20;;;9.10;99.90;;;;;;5058306;28;20461;-69
2024/03/20 07:49:52;;;;;;;13.50;8.83;;;9.20;99.90;;;;;;5061182;28;20802;-69
2024/03/20 07:52:18;;;;;;;13.20;7.73;;;9.40;99.90;;;;;;5055881;28;20521;-69
2024/03/20 07:54:45;;;;;;;15.50;8.50;;;9.40;99.90;;;;;;5061452;28;20858;-69
2024/03/20 07:57:12;;;;;;;14.50;7.40;;;9.50;99.90;;;;;;5061894;28;20443;-69
2024/03/20 07:59:38;;;;;;;12.53;8.53;;;9.60;99.90;;;;;;5060444;28;20449;-69
2024/03/20 08:02:06;;;;;;;12.90;7.67;;;9.70;99.90;;;;;;5056955;28;20499;-69
2024/03/20 08:04:38;;;;;;;14.10;7.97;;;9.80;99.90;;;;;;5045337;28;21217;-68
2024/03/20 08:07:06;;;;;;;14.73;7.77;;;10.00;99.90;;;;;;5057804;28;20466;-69
2024/03/20 08:09:32;;;;;;;14.00;7.87;;;10.10;99.90;;;;;;5070648;28;20945;-69
2024/03/20 08:12:00;;;;;;;12.47;7.97;;;10.30;99.90;;;;;;5046310;28;20467;-70
2024/03/20 08:14:27;;;;;;;12.80;7.80;;;10.40;99.90;;;;;;5048019;28;20480;-69
2024/03/20 08:16:54;;;;;;;15.23;8.13;;;10.60;99.90;;;;;;5048038;28;21031;-69
2024/03/20 08:19:20;;;;;;;12.83;7.23;;;10.60;99.90;;;;;;5047440;28;20479;-69
2024/03/20 08:21:49;;;;;;;13.17;7.20;;;10.70;99.90;;;;;;5046904;28;20478;-69
2024/03/20 08:24:16;;;;;;;12.30;7.37;;;11.00;99.90;;;;;;5047406;28;20456;-69
2024/03/20 08:26:42;;;;;;;13.17;7.50;;;11.00;99.90;;;;;;5048455;28;20880;-69
2024/03/20 08:29:09;;;;;;;12.17;7.07;;;11.20;99.90;;;;;;5048078;28;21015;-68
2024/03/20 08:31:37;;;;;;;12.40;7.17;;;11.40;99.90;;;;;;5039089;28;20471;-68
2024/03/20 08:34:04;;;;;;;12.27;7.60;;;11.50;99.90;;;;;;5048004;28;21125;-69
2024/03/20 08:36:30;;;;;;;12.43;6.10;;;11.80;99.90;;;;;;5048178;28;20476;-69
2024/03/20 08:38:58;;;;;;;11.30;6.60;;;12.00;99.90;;;;;;5047950;28;20969;-69
2024/03/20 08:41:24;;;;;;;12.53;5.77;;;12.20;99.90;;;;;;5044200;28;20486;-69
2024/03/20 08:43:51;;;;;;;12.40;7.07;;;12.50;99.90;;;;;;5040916;28;20830;-69
2024/03/20 08:46:19;;;;;;;10.30;5.63;;;12.60;99.90;;;;;;5047559;28;20983;-69
2024/03/20 08:48:46;;;;;;;11.70;6.30;;;12.80;99.90;;;;;;5047598;28;20470;-67
2024/03/20 08:51:12;;;;;;;10.33;5.53;;;13.10;99.90;;;;;;5046620;28;20523;-69
2024/03/20 08:53:39;;;;;;;9.97;5.63;;;13.30;99.90;;;;;;5038640;28;21095;-69
2024/03/20 08:56:06;;;;;;;10.40;6.20;;;13.50;99.90;;;;;;5047579;28;20466;-69
2024/03/20 08:58:33;;;;;;;11.73;6.53;;;13.60;99.90;;;;;;5047467;28;20443;-69
2024/03/20 09:00:59;;;;;;;10.32;4.68;;;13.80;99.90;;;;;;5047463;28;20440;-69
2024/03/20 09:03:27;;;;;;;10.53;5.10;;;14.00;99.90;;;;;;5037789;28;20244;-69
2024/03/20 09:05:53;;;;;;;11.17;5.93;;;14.30;99.90;;;;;;5047153;28;20960;-70
2024/03/20 09:08:20;;;;;;;9.37;5.30;;;14.60;99.90;;;;;;5047116;28;20448;-69
2024/03/20 09:10:46;;;;;;;10.93;5.20;;;14.80;99.90;;;;;;5046177;28;21003;-69
2024/03/20 09:13:15;;;;;;;10.60;5.60;;;14.90;99.90;;;;;;5046784;28;20477;-70
2024/03/20 09:15:41;;;;;;;10.67;5.27;;;15.00;99.90;;;;;;5048356;28;20828;-69
2024/03/20 09:18:08;;;;;;;13.17;5.50;;;15.20;99.90;;;;;;5047870;28;20537;-69
2024/03/20 09:20:40;;;;;;;9.57;5.00;;;15.30;99.90;;;;;;5048068;28;20459;-69
2024/03/20 09:23:07;;;;;;;9.17;4.80;;;15.70;99.90;;;;;;5046344;28;20492;-69
2024/03/20 09:25:33;;;;;;;10.43;4.60;;;15.80;99.90;;;;;;5047902;28;20448;-69
2024/03/20 09:28:01;;;;;;;11.73;5.10;;;15.70;99.90;;;;;;5047226;28;20463;-69
2024/03/20 09:30:28;;;;;;;9.50;4.87;;;15.90;99.90;;;;;;5047789;28;20869;-69
2024/03/20 09:32:55;;;;;;;10.47;4.43;;;15.90;99.90;;;;;;5046301;28;20491;-69
2024/03/20 09:35:22;;;;;;;10.23;5.17;;;16.00;99.90;;;;;;5047701;28;20459;-69
2024/03/20 09:37:49;;;;;;;11.43;4.93;;;16.50;99.90;;;;;;5047609;28;20456;-69
2024/03/20 09:40:21;;;;;;;9.30;4.63;;;16.60;99.90;;;;;;5047688;28;20451;-69
2024/03/20 09:42:51;;;;;;;9.20;4.00;;;16.80;99.90;;;;;;5046048;28;21017;-70
2024/03/20 09:45:18;;;;;;;10.50;4.80;;;16.90;99.90;;;;;;5047437;28;21133;-70
2024/03/20 09:47:49;;;;;;;9.30;4.90;;;17.40;99.10;;;;;;5047634;28;20456;-70
2024/03/20 09:50:15;;;;;;;10.30;5.30;;;17.60;98.10;;;;;;5044182;28;20471;-69
2024/03/20 09:52:42;;;;;;;9.50;4.60;;;17.70;97.60;;;;;;5045960;28;20472;-69
2024/03/20 09:55:12;;;;;;;9.53;4.73;;;17.90;96.20;;;;;;5047617;28;20559;-69
2024/03/20 09:57:42;;;;;;;8.80;4.43;;;17.90;95.70;;;;;;5047585;28;20506;-69
2024/03/20 10:00:14;;;;;;;9.57;4.80;;;18.00;95.20;;;;;;5046850;28;20452;-69
2024/03/20 10:02:42;;;;;;;9.43;4.40;;;18.30;94.30;;;;;;5045608;28;20514;-69
2024/03/20 10:05:12;;;;;;;9.20;4.20;;;18.40;91.80;;;;;;5046892;28;20459;-69
2024/03/20 10:07:40;;;;;;;12.17;4.40;;;18.60;92.30;;;;;;5047261;28;20456;-69
2024/03/20 10:10:08;;;;;;;9.07;3.67;;;18.90;87.80;;;;;;5046699;28;20456;-69
2024/03/20 10:12:36;;;;;;;9.33;4.20;;;19.20;86.60;;;;;;5045510;28;20862;-70
2024/03/20 10:15:07;;;;;;;9.70;3.93;;;19.30;85.50;;;;;;5047088;28;20460;-69
2024/03/20 10:17:35;;;;;;;8.73;3.90;;;19.60;84.90;;;;;;5047191;28;20444;-70
2024/03/20 10:20:05;;;;;;;9.20;4.20;;;19.90;85.10;;;;;;5046866;28;20479;-69
2024/03/20 10:22:35;;;;;;;8.40;4.23;;;20.20;78.70;;;;;;5045537;28;20484;-69
2024/03/20 10:25:01;;;;;;;9.50;3.87;;;20.20;80.10;;;;;;5046849;28;20505;-70
2024/03/20 10:27:29;;;;;;;8.43;4.00;;;20.10;79.80;;;;;;5046862;28;20456;-70
2024/03/20 10:29:57;;;;;;;9.30;3.93;;;20.00;77.00;;;;;;5046930;28;20456;-70
2024/03/20 10:32:25;;;;;;;8.73;3.77;;;20.20;80.20;;;;;;5044374;28;20460;-69
2024/03/20 10:34:53;;;;;;;8.20;3.40;;;20.20;75.00;;;;;;5046450;28;20958;-69
2024/03/20 10:37:21;;;;;;;15.43;4.67;;;20.20;79.50;;;;;;5046648;28;20452;-69
2024/03/20 10:39:50;;;;;;;10.67;4.00;;;20.20;72.50;;;;;;5046765;28;20448;-69
2024/03/20 10:42:18;;;;;;;8.63;3.60;;;20.10;71.40;;;;;;5045190;28;20510;-68
2024/03/20 10:44:45;;;;;;;8.00;3.40;;;19.90;70.70;;;;;;5046365;28;20456;-69
2024/03/20 10:47:13;;;;;;;9.03;3.50;;;19.50;72.40;;;;;;5046413;28;20459;-69
2024/03/20 10:49:39;;;;;;;7.93;3.10;;;19.50;76.40;;;;;;5046462;28;20460;-71
2024/03/20 10:52:10;;;;;;;8.20;3.20;;;19.90;73.50;;;;;;5045288;28;20475;-70
2024/03/20 10:54:37;;;;;;;8.90;3.70;;;20.60;75.20;;;;;;5046648;28;20513;-70
2024/03/20 10:57:06;;;;;;;8.00;2.90;;;21.20;68.70;;;;;;5046555;28;20455;-69
2024/03/20 10:59:34;;;;;;;9.03;3.63;;;21.70;66.40;;;;;;5046501;28;20456;-70
2024/03/20 11:02:03;;;;;;;7.80;2.63;;;22.00;68.70;;;;;;5039566;28;21102;-68
2024/03/20 11:04:37;;;;;;;14.00;3.43;;;22.10;66.50;;;;;;5049102;28;20489;-68
2024/03/20 11:07:34;;;;;;;7.17;3.40;;;22.60;67.00;;;;;;5050602;28;20537;-69
2024/03/20 11:10:03;;;;;;;9.23;3.37;;;22.80;59.70;;;;;;5050664;28;20448;-69
2024/03/20 11:12:33;;;;;;;8.47;3.30;;;23.10;58.90;;;;;;5049041;28;20472;-69
2024/03/20 11:15:01;;;;;;;9.23;3.73;;;22.70;58.90;;;;;;5050234;28;20452;-70
2024/03/20 11:17:28;;;;;;;8.40;3.30;;;22.50;57.90;;;;;;5050578;28;20456;-69
2024/03/20 11:19:57;;;;;;;9.20;3.53;;;22.30;58.20;;;;;;5050041;28;20448;-69
2024/03/20 11:22:25;;;;;;;8.00;2.93;;;22.40;58.80;;;;;;5048606;28;20964;-69
2024/03/20 11:24:51;;;;;;;7.70;2.83;;;22.90;59.80;;;;;;5050131;28;20448;-69
2024/03/20 11:27:19;;;;;;;9.03;2.80;;;23.40;59.40;;;;;;5049998;28;20875;-70
2024/03/20 11:29:46;;;;;;;9.90;2.73;;;23.70;57.10;;;;;;5050038;28;20502;-69
2024/03/20 11:32:14;;;;;;;11.70;4.20;;;23.90;57.20;;;;;;5048424;28;20471;-69
2024/03/20 11:34:41;;;;;;;9.60;2.93;;;23.90;55.80;;;;;;5042015;28;20466;-69
2024/03/20 11:37:14;;;;;;;8.80;3.67;;;24.10;57.70;;;;;;5049717;28;20521;-69
2024/03/20 11:39:41;;;;;;;8.97;3.00;;;24.50;52.50;;;;;;5048945;28;20456;-68
2024/03/20 11:42:08;;;;;;;8.40;3.23;;;23.70;54.70;;;;;;5047516;28;20475;-69
2024/03/20 11:44:34;;;;;;;7.10;2.33;;;23.20;54.60;;;;;;5049055;28;20482;-69
2024/03/20 11:47:03;;;;;;;8.70;3.00;;;22.90;56.60;;;;;;5048895;28;20456;-69
2024/03/20 11:49:30;;;;;;;8.93;2.40;;;22.70;55.20;;;;;;5048455;28;20467;-69
2024/03/20 11:51:59;;;;;;;10.37;2.80;;;22.80;54.30;;;;;;5048036;28;20849;-69
2024/03/20 11:54:25;;;;;;;8.10;2.37;;;23.10;54.10;;;;;;5048681;28;20860;-69
2024/03/20 11:56:53;;;;;;;8.67;2.43;;;23.40;56.00;;;;;;5048656;28;20513;-71
2024/03/20 11:59:19;;;;;;;7.87;2.60;;;23.90;54.60;;;;;;5048612;28;20459;-70
2024/03/20 12:01:54;;;;;;;7.27;2.60;;;24.10;53.80;;;;;;5047599;28;20480;-68
2024/03/20 12:04:21;;;;;;;7.23;2.20;;;24.20;54.80;;;;;;5047688;28;20479;-68
2024/03/20 12:06:48;;;;;;;8.40;2.10;;;24.20;53.00;;;;;;5047198;28;20513;-68
2024/03/20 12:09:16;;;;;;;6.90;1.87;;;24.20;51.00;;;;;;5049569;28;20452;-69
2024/03/20 12:11:43;;;;;;;7.47;2.50;;;24.40;52.40;;;;;;5048842;28;20483;-70
2024/03/20 12:14:10;;;;;;;8.13;2.17;;;24.50;50.30;;;;;;5048477;28;20449;-69
2024/03/20 12:16:37;;;;;;;6.83;1.97;;;24.20;53.40;;;;;;5049212;28;20468;-69
2024/03/20 12:19:05;;;;;;;8.20;2.20;;;24.20;51.10;;;;;;5049076;28;20953;-68
2024/03/20 12:21:34;;;;;;;7.17;1.60;;;24.30;49.40;;;;;;5048373;28;20506;-68
2024/03/20 12:24:00;;;;;;;7.07;1.80;;;24.70;51.40;;;;;;5047428;28;20476;-69
2024/03/20 12:26:28;;;;;;;9.17;2.33;;;25.50;49.90;;;;;;5048805;28;20979;-69
2024/03/20 12:28:55;;;;;;;6.90;1.80;;;25.70;51.30;;;;;;5049106;28;20460;-68
2024/03/20 12:31:23;;;;;;;8.23;2.03;;;26.00;50.90;;;;;;5048101;28;20464;-68
2024/03/20 12:33:50;;;;;;;7.93;1.93;;;25.90;49.20;;;;;;5047159;28;20831;-69
2024/03/20 12:36:17;;;;;;;9.00;1.80;;;25.90;47.50;;;;;;5048418;28;20462;-69
2024/03/20 12:38:45;;;;;;;7.30;1.73;;;26.00;48.60;;;;;;5047531;28;20452;-69
2024/03/20 12:41:15;;;;;;;7.13;1.83;;;26.20;49.10;;;;;;5046836;28;20941;-68
2024/03/20 12:43:41;;;;;;;7.47;1.50;;;26.80;47.70;;;;;;5045841;28;20857;-68
2024/03/20 12:46:09;;;;;;;7.70;2.40;;;27.10;46.30;;;;;;5047554;28;20777;-69
2024/03/20 12:48:35;;;;;;;7.30;1.87;;;27.30;44.70;;;;;;5047407;28;20479;-68